Latham, Missouri
Current Conditions -  °F | °C
As of 8:15 AM on Thursday 27 Nov 2014 (Local Time) from KVER Reporting Station
Overcast Overcast  
Wind Chill: 19°   Ceiling: 1600
Heat Index: 28°   Visibility: 10mi
Dew Point: 22°   Wind: 10mph
Humidity: 77%   Direction: 340°NNW
Pressure: 30.5"   Gusts: NA
Location:  38.56°N, 92.68°W
Report Text: KVER 271415Z AUTO 34009KT 10SM OVC016 M02/M06 A3050 RMK AO2 T10201056
Loading
Personal Weather Stations






























Interactive Weather Map New forecast layout! Learn more

10-Day Weather Forecast

Advertisements
Track Severe Weather on mobile